sensor_id;sensor_type;location;lat;lon;timestamp;pressure;altitude;pressure_sealevel;temperature;humidity
41712;BME280;27399;51.516;13.670;2023-03-14T00:02:02;98356.00;;;12.83;98.07
41712;BME280;27399;51.516;13.670;2023-03-14T00:04:28;98358.63;;;12.85;98.31
41712;BME280;27399;51.516;13.670;2023-03-14T00:06:53;98369.22;;;12.69;99.10
41712;BME280;27399;51.516;13.670;2023-03-14T00:09:19;98371.97;;;12.31;100.00
41712;BME280;27399;51.516;13.670;2023-03-14T00:11:44;98353.78;;;12.57;100.00
41712;BME280;27399;51.516;13.670;2023-03-14T00:14:11;98341.59;;;12.51;99.94
41712;BME280;27399;51.516;13.670;2023-03-14T00:16:37;98347.91;;;12.67;99.08
41712;BME280;27399;51.516;13.670;2023-03-14T00:19:02;98334.06;;;12.77;99.01
41712;BME280;27399;51.516;13.670;2023-03-14T00:21:28;98320.44;;;12.64;99.10
41712;BME280;27399;51.516;13.670;2023-03-14T00:23:54;98309.44;;;12.88;97.63
41712;BME280;27399;51.516;13.670;2023-03-14T00:26:20;98298.81;;;12.86;98.01
41712;BME280;27399;51.516;13.670;2023-03-14T00:28:47;98299.75;;;12.67;98.72
41712;BME280;27399;51.516;13.670;2023-03-14T00:31:16;98303.94;;;12.73;98.41
41712;BME280;27399;51.516;13.670;2023-03-14T00:33:42;98291.38;;;12.58;99.72
41712;BME280;27399;51.516;13.670;2023-03-14T00:36:11;98285.38;;;12.70;98.52
41712;BME280;27399;51.516;13.670;2023-03-14T00:38:38;98290.56;;;12.55;98.89
41712;BME280;27399;51.516;13.670;2023-03-14T00:41:10;98283.25;;;12.59;98.14
41712;BME280;27399;51.516;13.670;2023-03-14T00:43:36;98295.13;;;12.89;96.92
41712;BME280;27399;51.516;13.670;2023-03-14T00:46:02;98292.94;;;12.79;96.54
41712;BME280;27399;51.516;13.670;2023-03-14T00:48:28;98288.16;;;13.02;95.24
41712;BME280;27399;51.516;13.670;2023-03-14T00:50:54;98294.09;;;12.91;95.98
41712;BME280;27399;51.516;13.670;2023-03-14T00:53:19;98284.50;;;13.05;95.06
41712;BME280;27399;51.516;13.670;2023-03-14T00:55:45;98275.44;;;13.07;95.27
41712;BME280;27399;51.516;13.670;2023-03-14T00:58:13;98276.47;;;12.87;96.07
41712;BME280;27399;51.516;13.670;2023-03-14T01:00:39;98276.47;;;12.87;96.58
41712;BME280;27399;51.516;13.670;2023-03-14T01:03:05;98279.25;;;12.68;97.05
41712;BME280;27399;51.516;13.670;2023-03-14T01:05:31;98288.38;;;12.64;96.95
41712;BME280;27399;51.516;13.670;2023-03-14T01:07:57;98287.28;;;12.68;96.58
41712;BME280;27399;51.516;13.670;2023-03-14T01:10:23;98301.19;;;12.75;96.18
41712;BME280;27399;51.516;13.670;2023-03-14T01:12:49;98301.19;;;12.57;97.40
41712;BME280;27399;51.516;13.670;2023-03-14T01:15:14;98311.72;;;12.78;96.09
41712;BME280;27399;51.516;13.670;2023-03-14T01:17:40;98306.63;;;12.55;96.56
41712;BME280;27399;51.516;13.670;2023-03-14T01:20:08;98285.38;;;12.70;95.59
41712;BME280;27399;51.516;13.670;2023-03-14T01:22:35;98296.06;;;12.52;96.06
41712;BME280;27399;51.516;13.670;2023-03-14T01:25:01;98277.34;;;12.70;95.12
41712;BME280;27399;51.516;13.670;2023-03-14T01:27:27;98311.97;;;12.73;95.01
41712;BME280;27399;51.516;13.670;2023-03-14T01:29:53;98305.25;;;12.99;93.54
41712;BME280;27399;51.516;13.670;2023-03-14T01:32:18;98314.97;;;12.67;94.61
41712;BME280;27399;51.516;13.670;2023-03-14T01:34:44;98308.19;;;12.77;94.31
41712;BME280;27399;51.516;13.670;2023-03-14T01:37:09;98330.63;;;12.75;93.99
41712;BME280;27399;51.516;13.670;2023-03-14T01:39:37;98317.00;;;12.97;93.43
41712;BME280;27399;51.516;13.670;2023-03-14T01:42:03;98343.28;;;13.06;93.01
41712;BME280;27399;51.516;13.670;2023-03-14T01:44:47;98334.06;;;12.94;93.50
41712;BME280;27399;51.516;13.670;2023-03-14T01:47:13;98330.84;;;13.05;92.49
41712;BME280;27399;51.516;13.670;2023-03-14T01:49:38;98334.06;;;12.94;92.87
41712;BME280;27399;51.516;13.670;2023-03-14T01:52:17;98340.44;;;12.92;93.33
41712;BME280;27399;51.516;13.670;2023-03-14T01:54:50;98338.56;;;13.11;92.33
41712;BME280;27399;51.516;13.670;2023-03-14T01:57:28;98339.97;;;13.01;91.87
41712;BME280;27399;51.516;13.670;2023-03-14T02:00:05;98338.81;;;13.07;92.17
41712;BME280;27399;51.516;13.670;2023-03-14T02:02:38;98334.22;;;12.91;92.20
41712;BME280;27399;51.516;13.670;2023-03-14T02:05:05;98339.25;;;12.97;92.17
41712;BME280;27399;51.516;13.670;2023-03-14T02:07:38;98319.44;;;12.84;92.50
41712;BME280;27399;51.516;13.670;2023-03-14T02:10:06;98331.16;;;12.81;93.18
41712;BME280;27399;51.516;13.670;2023-03-14T02:12:33;98333.59;;;12.68;93.30
41712;BME280;27399;51.516;13.670;2023-03-14T02:14:59;98328.88;;;12.91;92.38
41712;BME280;27399;51.516;13.670;2023-03-14T02:17:25;98326.44;;;12.86;92.37
41712;BME280;27399;51.516;13.670;2023-03-14T02:22:50;98323.06;;;12.83;92.54
41712;BME280;27399;51.516;13.670;2023-03-14T02:27:57;98306.22;;;12.81;92.27
41712;BME280;27399;51.516;13.670;2023-03-14T02:30:26;98308.03;;;12.63;93.04
41712;BME280;27399;51.516;13.670;2023-03-14T02:42:51;98302.53;;;12.48;93.68
41712;BME280;27399;51.516;13.670;2023-03-14T02:47:57;98297.63;;;12.39;93.46
41712;BME280;27399;51.516;13.670;2023-03-14T02:50:26;98301.31;;;12.54;93.54
41712;BME280;27399;51.516;13.670;2023-03-14T02:52:54;98291.41;;;12.56;92.72
41712;BME280;27399;51.516;13.670;2023-03-14T02:55:21;98294.88;;;12.58;92.46
41712;BME280;27399;51.516;13.670;2023-03-14T02:57:47;98296.38;;;12.46;92.94
41712;BME280;27399;51.516;13.670;2023-03-14T03:00:13;98289.50;;;12.23;93.26
41712;BME280;27399;51.516;13.670;2023-03-14T03:02:39;98284.94;;;12.25;92.94
41712;BME280;27399;51.516;13.670;2023-03-14T03:05:04;98297.59;;;12.21;92.87
41712;BME280;27399;51.516;13.670;2023-03-14T03:07:30;98288.63;;;12.22;92.41
41712;BME280;27399;51.516;13.670;2023-03-14T03:09:56;98272.56;;;12.42;91.75
41712;BME280;27399;51.516;13.670;2023-03-14T03:12:21;98270.97;;;12.37;90.99
41712;BME280;27399;51.516;13.670;2023-03-14T03:14:47;98267.78;;;12.48;90.83
41712;BME280;27399;51.516;13.670;2023-03-14T03:17:12;98276.72;;;12.47;90.75
41712;BME280;27399;51.516;13.670;2023-03-14T03:19:38;98265.06;;;12.31;90.73
41712;BME280;27399;51.516;13.670;2023-03-14T03:22:04;98255.97;;;12.35;90.44
41712;BME280;27399;51.516;13.670;2023-03-14T03:24:29;98258.00;;;12.30;89.73
41712;BME280;27399;51.516;13.670;2023-03-14T03:26:55;98262.34;;;12.32;89.23
41712;BME280;27399;51.516;13.670;2023-03-14T03:29:20;98264.75;;;12.19;88.35
41712;BME280;27399;51.516;13.670;2023-03-14T03:31:46;98263.28;;;12.31;87.88
41712;BME280;27399;51.516;13.670;2023-03-14T03:34:12;98258.88;;;12.30;87.28
41712;BME280;27399;51.516;13.670;2023-03-14T03:36:38;98256.44;;;12.26;87.15
41712;BME280;27399;51.516;13.670;2023-03-14T03:39:04;98242.13;;;12.27;86.62
41712;BME280;27399;51.516;13.670;2023-03-14T03:41:30;98249.03;;;12.31;86.09
41712;BME280;27399;51.516;13.670;2023-03-14T03:43:56;98253.19;;;12.36;85.84
41712;BME280;27399;51.516;13.670;2023-03-14T03:46:22;98255.81;;;12.55;85.61
41712;BME280;27399;51.516;13.670;2023-03-14T03:48:48;98257.38;;;12.42;84.93
41712;BME280;27399;51.516;13.670;2023-03-14T03:51:15;98257.09;;;12.48;85.59
41712;BME280;27399;51.516;13.670;2023-03-14T03:53:42;98258.09;;;12.63;84.80
41712;BME280;27399;51.516;13.670;2023-03-14T03:56:08;98256.28;;;12.64;83.94
41712;BME280;27399;51.516;13.670;2023-03-14T03:58:34;98249.31;;;12.07;84.64
41712;BME280;27399;51.516;13.670;2023-03-14T04:01:00;98261.00;;;12.41;84.30
41712;BME280;27399;51.516;13.670;2023-03-14T04:03:26;98269.81;;;12.43;84.11
41712;BME280;27399;51.516;13.670;2023-03-14T04:05:59;98266.09;;;12.28;84.02
41712;BME280;27399;51.516;13.670;2023-03-14T04:08:25;98262.25;;;12.16;84.37
41712;BME280;27399;51.516;13.670;2023-03-14T04:10:55;98233.78;;;12.33;84.06
41712;BME280;27399;51.516;13.670;2023-03-14T04:13:20;98226.94;;;12.27;84.17
41712;BME280;27399;51.516;13.670;2023-03-14T04:15:46;98233.78;;;12.33;84.07
41712;BME280;27399;51.516;13.670;2023-03-14T04:18:12;98229.84;;;12.22;84.42
41712;BME280;27399;51.516;13.670;2023-03-14T04:20:37;98231.88;;;12.17;84.39
41712;BME280;27399;51.516;13.670;2023-03-14T04:23:03;98230.09;;;12.35;83.68
41712;BME280;27399;51.516;13.670;2023-03-14T04:25:28;98230.50;;;12.45;83.32
41712;BME280;27399;51.516;13.670;2023-03-14T04:27:54;98210.38;;;12.38;83.21
41712;BME280;27399;51.516;13.670;2023-03-14T04:30:19;98214.75;;;12.39;83.87
41712;BME280;27399;51.516;13.670;2023-03-14T04:32:45;98213.13;;;12.36;83.23
41712;BME280;27399;51.516;13.670;2023-03-14T04:35:11;98221.59;;;12.45;83.50
41712;BME280;27399;51.516;13.670;2023-03-14T04:37:36;98231.13;;;12.33;83.26
41712;BME280;27399;51.516;13.670;2023-03-14T04:40:02;98227.03;;;12.43;82.91
41712;BME280;27399;51.516;13.670;2023-03-14T04:42:31;98228.69;;;12.28;83.51
41712;BME280;27399;51.516;13.670;2023-03-14T04:44:57;98218.31;;;12.39;83.23
41712;BME280;27399;51.516;13.670;2023-03-14T04:47:22;98224.38;;;12.26;83.68
41712;BME280;27399;51.516;13.670;2023-03-14T04:49:48;98221.00;;;12.22;83.64
41712;BME280;27399;51.516;13.670;2023-03-14T04:52:14;98218.78;;;12.30;83.68
41712;BME280;27399;51.516;13.670;2023-03-14T04:54:39;98210.84;;;12.46;82.72
41712;BME280;27399;51.516;13.670;2023-03-14T04:57:05;98208.25;;;12.27;83.26
41712;BME280;27399;51.516;13.670;2023-03-14T04:59:30;98205.56;;;12.27;83.24
41712;BME280;27399;51.516;13.670;2023-03-14T05:01:56;98202.56;;;12.33;83.42
41712;BME280;27399;51.516;13.670;2023-03-14T05:04:21;98209.50;;;12.20;83.30
41712;BME280;27399;51.516;13.670;2023-03-14T05:06:47;98200.94;;;12.13;83.48
41712;BME280;27399;51.516;13.670;2023-03-14T05:09:15;98192.53;;;12.38;82.89
41712;BME280;27399;51.516;13.670;2023-03-14T05:11:41;98185.03;;;12.28;83.38
41712;BME280;27399;51.516;13.670;2023-03-14T05:14:07;98191.03;;;12.33;83.30
41712;BME280;27399;51.516;13.670;2023-03-14T05:16:32;98185.38;;;12.21;83.80
41712;BME280;27399;51.516;13.670;2023-03-14T05:18:58;98194.31;;;12.20;83.13
41712;BME280;27399;51.516;13.670;2023-03-14T05:21:24;98190.25;;;12.31;82.79
41712;BME280;27399;51.516;13.670;2023-03-14T05:23:49;98194.72;;;12.13;83.89
41712;BME280;27399;51.516;13.670;2023-03-14T05:26:15;98190.41;;;12.45;82.69
41712;BME280;27399;51.516;13.670;2023-03-14T05:28:42;98193.94;;;12.11;83.49
41712;BME280;27399;51.516;13.670;2023-03-14T05:31:09;98199.53;;;12.06;83.73
41712;BME280;27399;51.516;13.670;2023-03-14T05:33:34;98199.00;;;11.98;84.06
41712;BME280;27399;51.516;13.670;2023-03-14T05:36:03;98190.94;;;11.99;83.60
41712;BME280;27399;51.516;13.670;2023-03-14T05:38:29;98193.16;;;12.08;83.71
41712;BME280;27399;51.516;13.670;2023-03-14T05:40:55;98185.69;;;12.15;83.46
41712;BME280;27399;51.516;13.670;2023-03-14T05:43:22;98193.06;;;12.10;83.90
41712;BME280;27399;51.516;13.670;2023-03-14T05:45:47;98188.97;;;12.03;83.61
41712;BME280;27399;51.516;13.670;2023-03-14T05:48:15;98177.19;;;12.07;83.38
41712;BME280;27399;51.516;13.670;2023-03-14T05:50:42;98183.97;;;12.14;83.16
41712;BME280;27399;51.516;13.670;2023-03-14T05:53:14;98179.84;;;12.07;82.99
41712;BME280;27399;51.516;13.670;2023-03-14T05:55:40;98179.72;;;12.10;82.84
41712;BME280;27399;51.516;13.670;2023-03-14T05:58:06;98181.75;;;12.05;82.49
41712;BME280;27399;51.516;13.670;2023-03-14T06:00:32;98183.16;;;12.12;82.88
41712;BME280;27399;51.516;13.670;2023-03-14T06:02:57;98185.28;;;12.05;82.74
41712;BME280;27399;51.516;13.670;2023-03-14T06:12:06;98199.75;;;12.19;82.42
41712;BME280;27399;51.516;13.670;2023-03-14T06:14:32;98203.03;;;12.24;82.42
41712;BME280;27399;51.516;13.670;2023-03-14T06:16:57;98205.06;;;12.01;82.90
41712;BME280;27399;51.516;13.670;2023-03-14T06:19:25;98199.81;;;12.17;82.78
41712;BME280;27399;51.516;13.670;2023-03-14T06:21:51;98201.88;;;12.12;81.86
41712;BME280;27399;51.516;13.670;2023-03-14T06:24:17;98202.34;;;12.20;81.90
41712;BME280;27399;51.516;13.670;2023-03-14T06:26:42;98202.44;;;12.19;82.09
41712;BME280;27399;51.516;13.670;2023-03-14T06:29:08;98206.84;;;12.20;81.95
41712;BME280;27399;51.516;13.670;2023-03-14T06:31:34;98208.16;;;12.29;81.54
41712;BME280;27399;51.516;13.670;2023-03-14T06:34:00;98206.28;;;12.31;81.46
41712;BME280;27399;51.516;13.670;2023-03-14T06:36:26;98212.09;;;12.21;81.98
41712;BME280;27399;51.516;13.670;2023-03-14T06:38:51;98208.94;;;12.31;81.25
41712;BME280;27399;51.516;13.670;2023-03-14T06:41:17;98222.78;;;12.21;81.36
41712;BME280;27399;51.516;13.670;2023-03-14T06:43:43;98211.94;;;12.24;81.71
41712;BME280;27399;51.516;13.670;2023-03-14T06:46:08;98218.59;;;12.16;81.20
41712;BME280;27399;51.516;13.670;2023-03-14T06:48:34;98229.78;;;12.24;81.27
41712;BME280;27399;51.516;13.670;2023-03-14T06:50:59;98237.72;;;12.26;80.96
41712;BME280;27399;51.516;13.670;2023-03-14T06:53:25;98227.97;;;12.24;81.18
41712;BME280;27399;51.516;13.670;2023-03-14T06:55:51;98221.06;;;12.38;80.90
41712;BME280;27399;51.516;13.670;2023-03-14T06:58:17;98231.53;;;12.43;80.53
41712;BME280;27399;51.516;13.670;2023-03-14T07:00:42;98244.56;;;12.31;80.28
41712;BME280;27399;51.516;13.670;2023-03-14T07:03:09;98241.19;;;12.45;80.72
41712;BME280;27399;51.516;13.670;2023-03-14T07:05:35;98239.06;;;12.34;80.57
41712;BME280;27399;51.516;13.670;2023-03-14T07:08:01;98233.88;;;12.31;80.18
41712;BME280;27399;51.516;13.670;2023-03-14T07:10:26;98224.75;;;12.35;80.65
41712;BME280;27399;51.516;13.670;2023-03-14T07:12:52;98221.06;;;12.38;80.32
41712;BME280;27399;51.516;13.670;2023-03-14T07:15:19;98226.47;;;12.36;80.00
41712;BME280;27399;51.516;13.670;2023-03-14T07:17:45;98217.59;;;12.53;80.12
41712;BME280;27399;51.516;13.670;2023-03-14T07:20:13;98225.44;;;12.39;79.73
41712;BME280;27399;51.516;13.670;2023-03-14T07:22:39;98226.78;;;12.48;79.28
41712;BME280;27399;51.516;13.670;2023-03-14T07:25:05;98226.06;;;12.62;79.63
41712;BME280;27399;51.516;13.670;2023-03-14T07:27:31;98228.19;;;12.55;79.14
41712;BME280;27399;51.516;13.670;2023-03-14T07:33:09;98241.03;;;12.66;78.80
41712;BME280;27399;51.516;13.670;2023-03-14T07:35:37;98245.38;;;12.51;78.77
41712;BME280;27399;51.516;13.670;2023-03-14T07:38:03;98236.63;;;12.65;79.18
41712;BME280;27399;51.516;13.670;2023-03-14T07:40:29;98239.38;;;12.63;79.02
41712;BME280;27399;51.516;13.670;2023-03-14T07:42:54;98236.88;;;12.60;78.91
41712;BME280;27399;51.516;13.670;2023-03-14T07:45:20;98224.19;;;12.64;78.91
41712;BME280;27399;51.516;13.670;2023-03-14T07:47:46;98232.53;;;12.75;78.67
41712;BME280;27399;51.516;13.670;2023-03-14T07:50:11;98229.69;;;12.61;79.35
41712;BME280;27399;51.516;13.670;2023-03-14T07:52:37;98225.19;;;12.79;78.21
41712;BME280;27399;51.516;13.670;2023-03-14T07:55:03;98216.63;;;12.72;78.61
41712;BME280;27399;51.516;13.670;2023-03-14T07:57:29;98218.22;;;12.76;78.60
41712;BME280;27399;51.516;13.670;2023-03-14T07:59:54;98224.34;;;12.78;78.45
41712;BME280;27399;51.516;13.670;2023-03-14T08:02:20;98211.91;;;12.60;78.38
41712;BME280;27399;51.516;13.670;2023-03-14T08:04:47;98220.53;;;12.82;78.21
41712;BME280;27399;51.516;13.670;2023-03-14T08:07:14;98219.66;;;12.99;77.32
41712;BME280;27399;51.516;13.670;2023-03-14T08:09:39;98217.88;;;13.16;77.42
41712;BME280;27399;51.516;13.670;2023-03-14T08:12:05;98232.19;;;12.99;77.34
41712;BME280;27399;51.516;13.670;2023-03-14T08:14:31;98210.31;;;12.91;77.60
41712;BME280;27399;51.516;13.670;2023-03-14T08:16:57;98223.47;;;12.95;77.34
41712;BME280;27399;51.516;13.670;2023-03-14T08:19:23;98199.63;;;12.91;77.71
41712;BME280;27399;51.516;13.670;2023-03-14T08:21:48;98217.91;;;12.98;77.50
41712;BME280;27399;51.516;13.670;2023-03-14T08:24:14;98204.28;;;13.03;77.17
41712;BME280;27399;51.516;13.670;2023-03-14T08:26:40;98206.53;;;12.95;77.61
41712;BME280;27399;51.516;13.670;2023-03-14T08:29:05;98212.59;;;13.14;77.40
41712;BME280;27399;51.516;13.670;2023-03-14T08:31:32;98201.22;;;13.11;77.11
41712;BME280;27399;51.516;13.670;2023-03-14T08:33:58;98205.22;;;13.02;77.36
41712;BME280;27399;51.516;13.670;2023-03-14T08:36:25;98200.84;;;13.01;77.49
41712;BME280;27399;51.516;13.670;2023-03-14T08:38:50;98202.56;;;13.02;77.34
41712;BME280;27399;51.516;13.670;2023-03-14T08:41:16;98196.25;;;13.03;77.35
41712;BME280;27399;51.516;13.670;2023-03-14T08:43:41;98195.06;;;13.09;77.11
41712;BME280;27399;51.516;13.670;2023-03-14T08:46:07;98192.34;;;12.93;77.27
41712;BME280;27399;51.516;13.670;2023-03-14T08:48:33;98197.00;;;13.23;76.85
41712;BME280;27399;51.516;13.670;2023-03-14T08:51:07;98205.38;;;13.32;76.89
41712;BME280;27399;51.516;13.670;2023-03-14T08:53:33;98208.31;;;13.28;76.27
41712;BME280;27399;51.516;13.670;2023-03-14T08:55:59;98206.50;;;13.28;76.66
41712;BME280;27399;51.516;13.670;2023-03-14T08:58:24;98206.06;;;13.20;76.71
41712;BME280;27399;51.516;13.670;2023-03-14T09:00:50;98200.72;;;13.36;76.67
41712;BME280;27399;51.516;13.670;2023-03-14T09:03:16;98207.69;;;13.40;76.45
41712;BME280;27399;51.516;13.670;2023-03-14T09:05:42;98199.56;;;13.58;76.04
41712;BME280;27399;51.516;13.670;2023-03-14T09:08:07;98204.75;;;13.61;76.09
41712;BME280;27399;51.516;13.670;2023-03-14T09:10:33;98205.94;;;13.87;75.69
41712;BME280;27399;51.516;13.670;2023-03-14T09:12:58;98218.22;;;13.75;75.92
41712;BME280;27399;51.516;13.670;2023-03-14T09:15:25;98219.22;;;13.89;75.33
41712;BME280;27399;51.516;13.670;2023-03-14T09:17:51;98221.50;;;13.81;74.54
41712;BME280;27399;51.516;13.670;2023-03-14T09:20:17;98209.41;;;13.89;75.10
41712;BME280;27399;51.516;13.670;2023-03-14T09:22:42;98212.81;;;14.07;74.21
41712;BME280;27399;51.516;13.670;2023-03-14T09:25:09;98214.53;;;14.08;74.63
41712;BME280;27399;51.516;13.670;2023-03-14T09:27:35;98226.78;;;14.29;74.16
41712;BME280;27399;51.516;13.670;2023-03-14T09:30:01;98213.34;;;13.98;73.72
41712;BME280;27399;51.516;13.670;2023-03-14T09:32:27;98221.88;;;14.05;73.85
41712;BME280;27399;51.516;13.670;2023-03-14T09:34:52;98219.84;;;13.94;73.31
41712;BME280;27399;51.516;13.670;2023-03-14T09:37:18;98224.06;;;13.98;73.63
41712;BME280;27399;51.516;13.670;2023-03-14T09:39:45;98219.94;;;13.76;73.29
41712;BME280;27399;51.516;13.670;2023-03-14T09:42:15;98220.13;;;13.73;73.35
41712;BME280;27399;51.516;13.670;2023-03-14T09:47:16;98231.16;;;13.99;72.82
41712;BME280;27399;51.516;13.670;2023-03-14T09:49:45;98236.72;;;13.96;72.74
41712;BME280;27399;51.516;13.670;2023-03-14T09:52:25;98232.53;;;14.06;72.41
41712;BME280;27399;51.516;13.670;2023-03-14T09:54:59;98227.63;;;13.83;72.37
41712;BME280;27399;51.516;13.670;2023-03-14T09:57:28;98222.00;;;13.87;72.13
41712;BME280;27399;51.516;13.670;2023-03-14T10:00:00;98239.56;;;13.93;72.47
41712;BME280;27399;51.516;13.670;2023-03-14T10:02:35;98237.03;;;13.74;72.16
41712;BME280;27399;51.516;13.670;2023-03-14T10:05:01;98226.84;;;13.81;72.39
41712;BME280;27399;51.516;13.670;2023-03-14T10:07:32;98237.56;;;13.81;72.36
41712;BME280;27399;51.516;13.670;2023-03-14T10:09:59;98233.41;;;13.91;72.14
41712;BME280;27399;51.516;13.670;2023-03-14T10:12:36;98232.63;;;13.89;72.24
41712;BME280;27399;51.516;13.670;2023-03-14T10:15:05;98236.97;;;13.91;72.20
41712;BME280;27399;51.516;13.670;2023-03-14T10:17:42;98233.53;;;13.73;72.30
41712;BME280;27399;51.516;13.670;2023-03-14T10:23:05;98232.38;;;13.77;72.27
41712;BME280;27399;51.516;13.670;2023-03-14T10:25:34;98230.81;;;14.05;71.89
41712;BME280;27399;51.516;13.670;2023-03-14T10:28:00;98232.44;;;14.08;71.87
41712;BME280;27399;51.516;13.670;2023-03-14T10:33:25;98228.94;;;13.91;72.22
41712;BME280;27399;51.516;13.670;2023-03-14T10:38:23;98220.97;;;13.90;71.51
41712;BME280;27399;51.516;13.670;2023-03-14T10:40:51;98216.03;;;13.98;71.71
41712;BME280;27399;51.516;13.670;2023-03-14T10:43:32;98220.97;;;13.90;71.16
41712;BME280;27399;51.516;13.670;2023-03-14T10:46:02;98230.28;;;14.15;71.57
41712;BME280;27399;51.516;13.670;2023-03-14T10:48:38;98222.09;;;14.32;70.91
41712;BME280;27399;51.516;13.670;2023-03-14T10:51:25;98206.00;;;14.32;70.36
41712;BME280;27399;51.516;13.670;2023-03-14T10:54:02;98214.25;;;14.13;69.89
41712;BME280;27399;51.516;13.670;2023-03-14T10:56:34;98217.63;;;14.33;70.02
41712;BME280;27399;51.516;13.670;2023-03-14T10:59:00;98208.25;;;14.40;70.06
41712;BME280;27399;51.516;13.670;2023-03-14T11:06:53;98214.28;;;14.44;70.20
41712;BME280;27399;51.516;13.670;2023-03-14T11:09:34;98217.34;;;14.37;69.69
41712;BME280;27399;51.516;13.670;2023-03-14T11:12:26;98202.78;;;14.11;70.34
41712;BME280;27399;51.516;13.670;2023-03-14T11:15:02;98220.75;;;14.25;69.96
41712;BME280;27399;51.516;13.670;2023-03-14T11:17:38;98229.66;;;14.09;70.19
41712;BME280;27399;51.516;13.670;2023-03-14T11:20:32;98233.13;;;14.12;70.04
41712;BME280;27399;51.516;13.670;2023-03-14T11:29:28;98227.19;;;14.06;69.71
41712;BME280;27399;51.516;13.670;2023-03-14T11:31:58;98210.56;;;14.16;69.95
41712;BME280;27399;51.516;13.670;2023-03-14T11:34:37;98209.13;;;14.24;69.91
41712;BME280;27399;51.516;13.670;2023-03-14T11:37:21;98206.47;;;14.24;69.58
41712;BME280;27399;51.516;13.670;2023-03-14T11:40:00;98197.06;;;14.17;70.26
41712;BME280;27399;51.516;13.670;2023-03-14T11:42:28;98198.38;;;14.40;69.90
41712;BME280;27399;51.516;13.670;2023-03-14T11:44:55;98190.38;;;14.55;69.73
41712;BME280;27399;51.516;13.670;2023-03-14T11:47:24;98196.56;;;14.55;69.80
41712;BME280;27399;51.516;13.670;2023-03-14T11:50:17;98199.19;;;14.57;69.61
41712;BME280;27399;51.516;13.670;2023-03-14T11:52:54;98193.50;;;15.07;69.59
41712;BME280;27399;51.516;13.670;2023-03-14T11:55:39;98202.72;;;15.02;68.29
41712;BME280;27399;51.516;13.670;2023-03-14T11:58:14;98189.31;;;15.02;68.19
41712;BME280;27399;51.516;13.670;2023-03-14T12:00:41;98182.47;;;15.26;68.53
41712;BME280;27399;51.516;13.670;2023-03-14T12:06:15;98188.91;;;14.94;69.00
41712;BME280;27399;51.516;13.670;2023-03-14T12:08:43;98190.63;;;14.81;68.51
41712;BME280;27399;51.516;13.670;2023-03-14T12:13:57;98185.44;;;14.78;68.37
41712;BME280;27399;51.516;13.670;2023-03-14T12:18:49;98176.25;;;14.82;68.86
41712;BME280;27399;51.516;13.670;2023-03-14T12:21:15;98188.63;;;14.54;69.12
41712;BME280;27399;51.516;13.670;2023-03-14T12:28:36;98174.44;;;14.52;70.50
41712;BME280;27399;51.516;13.670;2023-03-14T12:44:37;98174.78;;;15.19;69.21
41712;BME280;27399;51.516;13.670;2023-03-14T12:49:50;98188.00;;;14.65;71.35
41712;BME280;27399;51.516;13.670;2023-03-14T12:52:31;98196.47;;;14.43;73.75
41712;BME280;27399;51.516;13.670;2023-03-14T12:55:14;98192.28;;;14.53;75.70
41712;BME280;27399;51.516;13.670;2023-03-14T12:57:55;98194.88;;;14.24;76.33
41712;BME280;27399;51.516;13.670;2023-03-14T13:00:24;98201.84;;;14.12;79.91
41712;BME280;27399;51.516;13.670;2023-03-14T13:05:58;98201.00;;;13.79;84.12
41712;BME280;27399;51.516;13.670;2023-03-14T13:08:42;98191.94;;;13.66;87.06
41712;BME280;27399;51.516;13.670;2023-03-14T13:11:12;98179.50;;;13.65;85.32
41712;BME280;27399;51.516;13.670;2023-03-14T13:13:45;98181.03;;;13.21;85.25
41712;BME280;27399;51.516;13.670;2023-03-14T13:16:16;98178.22;;;13.40;86.53
41712;BME280;27399;51.516;13.670;2023-03-14T13:18:50;98172.19;;;13.03;87.15
41712;BME280;27399;51.516;13.670;2023-03-14T13:21:21;98179.72;;;13.12;87.51
41712;BME280;27399;51.516;13.670;2023-03-14T13:24:02;98171.19;;;13.22;89.05
41712;BME280;27399;51.516;13.670;2023-03-14T13:26:35;98157.81;;;13.38;90.08
41712;BME280;27399;51.516;13.670;2023-03-14T13:29:09;98152.78;;;13.79;87.83
41712;BME280;27399;51.516;13.670;2023-03-14T13:31:34;98154.34;;;13.84;86.67
41712;BME280;27399;51.516;13.670;2023-03-14T13:34:04;98159.31;;;13.75;86.26
41712;BME280;27399;51.516;13.670;2023-03-14T13:36:30;98156.53;;;14.07;86.35
41712;BME280;27399;51.516;13.670;2023-03-14T13:39:00;98152.81;;;14.10;85.54
41712;BME280;27399;51.516;13.670;2023-03-14T13:41:27;98145.69;;;14.25;84.75
41712;BME280;27399;51.516;13.670;2023-03-14T13:44:01;98146.47;;;13.97;85.14
41712;BME280;27399;51.516;13.670;2023-03-14T13:46:28;98154.09;;;13.88;84.14
41712;BME280;27399;51.516;13.670;2023-03-14T13:48:57;98135.84;;;13.95;85.09
41712;BME280;27399;51.516;13.670;2023-03-14T13:51:24;98143.63;;;14.14;82.01
41712;BME280;27399;51.516;13.670;2023-03-14T13:53:54;98142.81;;;14.28;82.49
41712;BME280;27399;51.516;13.670;2023-03-14T13:56:22;98146.47;;;14.41;81.27
41712;BME280;27399;51.516;13.670;2023-03-14T13:58:48;98134.88;;;13.96;78.23
41712;BME280;27399;51.516;13.670;2023-03-14T14:01:25;98138.47;;;14.11;78.68
41712;BME280;27399;51.516;13.670;2023-03-14T14:03:55;98139.66;;;14.36;78.12
41712;BME280;27399;51.516;13.670;2023-03-14T14:06:44;98131.22;;;14.28;76.79
41712;BME280;27399;51.516;13.670;2023-03-14T14:09:14;98136.22;;;14.34;76.20
41712;BME280;27399;51.516;13.670;2023-03-14T14:11:57;98129.03;;;14.34;77.43
41712;BME280;27399;51.516;13.670;2023-03-14T14:14:33;98123.06;;;14.29;75.84
41712;BME280;27399;51.516;13.670;2023-03-14T14:17:01;98116.97;;;14.27;76.06
41712;BME280;27399;51.516;13.670;2023-03-14T14:19:30;98118.00;;;14.24;74.81